読者です 読者をやめる 読者になる 読者になる

今朝の羽田(2017/03/26)

ANA968/JA878A(B788)

JAL34/JA732J(B77W) oneworld c/s

JAL36/JA702J(B772)

*TTW217/B-50008(A320)

ANA844/JA884A(B789)

SIA636/9V-SWU(B77W)

ANA880/JA871A(B789)

ANA850/JA886A(B789)

*JAL8122/JA823J(B788)

*APJ859/JA809P(A320)

*ANA9061/JA716A(B772)

*ANA9352/JA625A(B763) with winglet

ANA856/JA888A(B789)

THA682/HS-TGW(B744) STAR ALLIANCE c/s

*AAR177/HL8060(A321)

JAL70/JA833J(B788)

*KAL720/HL8273(B739)

*JAL8124/JA609J(B763)

ANA204/JA792A(B77W)

*HKE625/B-LCB(A320)

ANA8558/JA8358(B763)

BAW7/G-STBA(B77W)

RJTT 252000Z 35010KT 9999 -RA FEW015 BKN030 06/03 Q1019 NOSIG RMK 1CU015 7SC030 A3011

RJTT 252100Z 34012KT 9999 -RA FEW015 BKN030 BKN040 06/04 Q1019 NOSIG RMK 1CU015 6SC030 7SC040 A3011

RJTT 252200Z 34013KT 9999 -RA FEW010 BKN030 06/04 Q1020 NOSIG RMK 1CU010 7SC030 A3012

今朝の羽田は小雨模様です。